• Join FlightAware (Why Join?)
  • Login
  • US Flag 
03:21PM EST


 

Airport Tracker/Info


-or-


 

Live Flight TrackerFlight Track Log ✈ UAL395 ✈ 03-May-2013 ✈ KSAT - KIAH

Flight Track Log - Related Links

Times and Time Zones

All times are in EDT time to prevent confusion due to time zone crossing. See the UAL395 flight status page for this flight to view local times or setup timezone preferences in your user account.

Time Position Orientation Groundspeed Altitude Reporting Facility
EDT Latitude Longitude Course Direction KTS MPH feet Rate Location/Type
06:36AM 29.5439 -98.4878 90° East 151 174 1,500  Level Houston Center
06:37AM 29.5739 -98.5419 302° West 187 215 4,500 2,580 Climbing Houston Center
06:38AM 29.5933 -98.5694 309° West 190 219 6,500 3,180 Climbing Houston Center
06:38AM 29.6122 -98.5708 356° North 197 227 7,700 2,880 Climbing Houston Center
06:39AM 29.6083 -98.1587 77° East  Level FlightAware Approximate
06:39AM 29.6347 -98.5322 56° Northeast 223 257 9,400  Level Houston Center
06:40AM 29.6241 -98.0797 77° East  Level FlightAware Approximate
06:40AM 29.6336 -98.4361 91° East 305 351 10,800  Level Houston Center
06:41AM 29.6500 -98.0085 90° East  Level FlightAware Approximate
06:41AM 29.6392 -98.3122 87° East 386 444 12,000  Level Houston Center
06:42AM 29.6431 -98.1750 88° East 426 490 16,100 3,300 Climbing Houston Center
06:43AM 29.6475 -98.0281 88° East 458 527 18,700 2,280 Climbing Houston Center
06:44AM 29.6436 -97.8744 92° East 478 550 20,800 1,740 Climbing Houston Center
06:45AM 29.6356 -97.7286 94° East 500 575 22,200 1,080 Climbing Houston Center
06:46AM 29.6275 -97.5700 93° East 501 577 23,000 360 Climbing Houston Center
06:47AM 29.6194 -97.4272 94° East 453 521 23,000  Level Houston Center
06:48AM 29.6117 -97.2875 94° East 440 506 23,000  Level Houston Center
06:49AM 29.6047 -97.1478 93° East 438 504 23,000  Level Houston Center
06:50AM 29.5967 -97.0061 94° East 440 506 23,000 -360 Level Houston Center
06:51AM 29.5881 -96.8644 94° East 439 505 22,300 -1,560 Descending Houston Center
06:52AM 29.5789 -96.7189 94° East 447 514 19,900 -2,160 Descending Houston Center
06:53AM 29.5686 -96.5386 94° East 434 499 17,500 -1,980 Descending Houston Center
06:54AM 29.5625 -96.4444 94° East 423 487 16,000 -1,980 Descending Houston Center
06:55AM 29.5542 -96.3139 94° East 410 472 14,000 -1,920 Descending Houston Center
06:56AM 29.5458 -96.1897 94° East 392 451 12,200 -1,320 Descending Houston Center
06:57AM 29.5886 -96.0828 65° Northeast 378 435 11,400 -1,140 Descending Houston Center
06:58AM 29.6386 -95.9833 60° Northeast 375 432 10,000 -1,320 Descending Houston Center
06:58AM 29.6567 -95.9453 61° Northeast 350 403 9,800 -840 Descending Houston Center
06:59AM 29.6844 -95.8917 59° Northeast 338 389 9,200 -1,320 Descending Houston Center
06:59AM 29.7067 -95.8481 60° Northeast 308 354 8,400 -1,440 Descending Houston Center
07:00AM 29.7261 -95.8058 62° Northeast 312 359 7,800 -1,140 Descending Houston Center
07:00AM 29.7494 -95.7614 59° Northeast 313 360 7,300 -900 Descending Houston Center
07:01AM 29.7700 -95.7200 60° Northeast 311 358 6,900 -900 Descending Houston Center
07:01AM 29.7958 -95.6692 60° Northeast 301 346 6,300 -900 Descending Houston Center
07:02AM 29.8117 -95.6381 60° Northeast 299 344 6,000 -300 Descending Houston Center
07:02AM 29.8369 -95.5875 60° Northeast 286 329 6,000  Level Houston Center
07:03AM 29.8514 -95.5586 60° Northeast 290 334 6,000  Level Houston Center
07:03AM 29.8758 -95.5081 61° Northeast 289 333 6,000 -120 Level Houston Center
07:04AM 29.8919 -95.4783 58° Northeast 289 333 5,900  Descending Houston Center
07:04AM 29.8961 -95.4069 86° East 302 348 6,000 60 Climbing Houston Center
07:05AM 29.8961 -95.3394 90° East 276 318 6,000 -420 Level Houston Center
07:06AM 29.8967 -95.2936 89° East 283 326 5,400 -1,200 Descending Houston Center
07:06AM 29.8972 -95.2575 89° East 241 277 4,800 -1,500 Descending Houston Center
07:07AM 29.8967 -95.2172 91° East 248 285 3,900 -1,200 Descending Houston Center
07:07AM 29.9094 -95.1858 65° Northeast 187 215 3,500 -1,200 Descending Houston Center
07:08AM 29.9375 -95.1803 10° North 195 224 2,700 -1,320 Descending Houston Center
07:08AM 29.9492 -95.1836 346° North 127 146 2,200 -1,140 Descending Houston Center
07:09AM 29.9636 -95.2047 308° West 149 171 1,600 -720 Descending Houston Center
07:09AM 29.9667 -95.2150 289° West 125 144 1,600  Level Houston Center